Time;durP1;ratioP1;P1;durP2;ratioP2;P2;SDS_P1;SDS_P2;PMS_P1;PMS_P2;Temp;Humidity;BMP_temperature;BMP_pressure;BME280_temperature;BME280_humidity;BME280_pressure;Samples;Min_cycle;Max_cycle;Signal;HPM_P1;HPM_P2
2022/05/27 00:00:00;;;;;;;4.33;2.20;;;16.70;99.90;;;;;;5095813;28;20488;-93
2022/05/27 00:02:30;;;;;;;4.90;2.10;;;16.70;99.90;;;;;;5096087;28;20450;-92
2022/05/27 00:04:56;;;;;;;4.40;2.43;;;16.80;99.90;;;;;;5095456;28;20559;-92
2022/05/27 00:07:23;;;;;;;8.53;2.60;;;16.80;99.90;;;;;;5095403;28;20527;-92
2022/05/27 00:09:50;;;;;;;4.90;1.97;;;16.80;99.90;;;;;;5095779;28;20447;-92
2022/05/27 00:12:16;;;;;;;6.43;2.40;;;16.80;99.90;;;;;;5095776;28;20434;-92
2022/05/27 00:14:43;;;;;;;3.43;2.10;;;16.80;99.90;;;;;;5096145;28;20487;-92
2022/05/27 00:17:11;;;;;;;5.50;2.50;;;16.80;99.90;;;;;;5096229;28;20409;-93
2022/05/27 00:19:38;;;;;;;6.10;2.53;;;16.80;99.90;;;;;;5097667;28;20938;-93
2022/05/27 00:22:05;;;;;;;6.17;2.70;;;16.80;99.90;;;;;;5096405;28;20870;-92
2022/05/27 00:24:31;;;;;;;4.10;2.00;;;16.80;99.90;;;;;;5095562;28;20898;-93
2022/05/27 00:27:00;;;;;;;3.67;2.30;;;16.80;99.90;;;;;;5095983;28;20459;-94
2022/05/27 00:29:27;;;;;;;3.50;2.10;;;16.80;99.90;;;;;;5095926;28;20512;-93
2022/05/27 00:31:54;;;;;;;5.63;2.33;;;16.80;99.90;;;;;;5096033;28;20481;-93
2022/05/27 00:34:22;;;;;;;5.07;2.37;;;16.80;99.90;;;;;;5095928;28;20466;-92
2022/05/27 00:36:49;;;;;;;4.57;2.47;;;16.80;99.90;;;;;;5096315;28;20456;-94
2022/05/27 00:39:15;;;;;;;6.60;2.50;;;16.80;99.90;;;;;;5100683;28;20442;-95
2022/05/27 00:41:43;;;;;;;6.53;2.90;;;16.80;99.90;;;;;;5117173;28;20450;-95
2022/05/27 00:44:09;;;;;;;5.20;2.63;;;16.70;99.90;;;;;;5106262;28;21002;-94
2022/05/27 00:46:40;;;;;;;6.97;2.13;;;16.70;99.90;;;;;;5095186;28;20480;-93
2022/05/27 00:49:11;;;;;;;5.87;2.47;;;16.70;99.90;;;;;;5094478;28;20405;-92
2022/05/27 00:51:47;;;;;;;6.90;2.77;;;16.70;99.90;;;;;;5095464;28;20500;-93
2022/05/27 00:54:17;;;;;;;9.47;2.60;;;16.70;99.90;;;;;;5095016;28;20528;-93
2022/05/27 00:56:47;;;;;;;6.27;2.67;;;16.60;99.90;;;;;;5096392;28;20482;-93
2022/05/27 00:59:22;;;;;;;4.83;2.20;;;16.60;99.90;;;;;;5095159;28;20448;-93
2022/05/27 01:01:49;;;;;;;5.80;2.60;;;16.60;99.90;;;;;;5094947;28;20828;-93
2022/05/27 01:04:17;;;;;;;5.70;2.60;;;16.60;99.90;;;;;;5093765;28;21042;-93
2022/05/27 01:06:46;;;;;;;4.43;2.70;;;16.60;99.90;;;;;;5094546;28;20825;-92
2022/05/27 01:09:14;;;;;;;7.57;1.93;;;16.50;99.90;;;;;;5095233;28;20454;-93
2022/05/27 01:12:01;;;;;;;8.60;2.70;;;16.40;99.90;;;;;;5094815;28;20459;-92
2022/05/27 01:14:33;;;;;;;2.30;2.10;;;16.50;99.90;;;;;;5094250;28;20425;-92
2022/05/27 01:17:08;;;;;;;7.47;2.40;;;16.50;99.90;;;;;;5101178;28;20473;-92
2022/05/27 01:22:58;;;;;;;2.93;2.17;;;16.40;99.90;;;;;;5139156;28;20498;-96
2022/05/27 01:26:05;;;;;;;4.87;2.37;;;16.40;99.90;;;;;;5138671;28;20450;-96
2022/05/27 01:28:40;;;;;;;12.03;2.40;;;16.30;99.90;;;;;;5117859;28;20458;-96
2022/05/27 01:31:27;;;;;;;2.90;1.90;;;16.30;99.90;;;;;;5138869;28;20447;-96
2022/05/27 01:34:05;;;;;;;8.07;2.10;;;16.30;99.90;;;;;;5138559;28;20464;-96
2022/05/27 01:36:41;;;;;;;6.23;2.83;;;16.20;99.90;;;;;;5136990;28;20472;-93
2022/05/27 01:39:13;;;;;;;10.27;2.30;;;16.20;99.90;;;;;;5114551;28;20462;-92
2022/05/27 01:41:46;;;;;;;7.30;2.30;;;16.10;99.90;;;;;;5114366;28;20438;-93
2022/05/27 01:44:19;;;;;;;6.90;2.30;;;16.10;99.90;;;;;;5114076;28;20474;-92
2022/05/27 01:46:49;;;;;;;7.70;3.00;;;16.00;99.90;;;;;;5113735;28;20415;-93
2022/05/27 01:49:25;;;;;;;7.60;2.70;;;16.00;99.90;;;;;;5113499;28;20437;-92
2022/05/27 01:51:56;;;;;;;5.83;2.50;;;16.00;99.90;;;;;;5114391;28;20532;-93
2022/05/27 01:54:32;;;;;;;7.10;2.33;;;16.00;99.90;;;;;;5113658;28;20682;-93
2022/05/27 01:57:04;;;;;;;6.00;2.23;;;16.00;99.90;;;;;;5113891;28;20443;-93
2022/05/27 01:59:36;;;;;;;7.70;2.57;;;16.00;99.90;;;;;;5113558;28;21298;-93
2022/05/27 02:02:11;;;;;;;6.47;3.00;;;15.90;99.90;;;;;;5114141;28;20464;-93
2022/05/27 02:04:42;;;;;;;9.47;2.67;;;15.90;99.90;;;;;;5113731;28;20481;-93
2022/05/27 02:07:13;;;;;;;4.80;2.40;;;15.80;99.90;;;;;;5114015;28;20866;-93
2022/05/27 02:09:44;;;;;;;4.77;2.80;;;15.80;99.90;;;;;;5114133;28;20461;-92
2022/05/27 02:12:16;;;;;;;3.87;2.97;;;15.80;99.90;;;;;;5113795;28;20461;-94
2022/05/27 02:14:50;;;;;;;5.90;2.70;;;15.80;99.90;;;;;;5114484;28;20481;-93
2022/05/27 02:17:23;;;;;;;3.90;2.67;;;15.80;99.90;;;;;;5108910;28;20478;-92
2022/05/27 02:19:55;;;;;;;3.00;2.40;;;15.70;99.90;;;;;;5097638;28;20469;-93
2022/05/27 02:22:26;;;;;;;5.57;2.53;;;15.80;99.90;;;;;;5097395;28;20431;-93
2022/05/27 02:24:57;;;;;;;4.40;2.43;;;15.80;99.90;;;;;;5097141;28;20466;-92
2022/05/27 02:27:28;;;;;;;3.13;2.40;;;15.80;99.90;;;;;;5097870;28;20454;-94
2022/05/27 02:29:59;;;;;;;3.37;2.47;;;15.80;99.90;;;;;;5107143;28;20430;-92
2022/05/27 02:32:31;;;;;;;6.97;2.63;;;15.80;99.90;;;;;;5106973;28;20871;-94
2022/05/27 02:35:10;;;;;;;6.17;2.50;;;15.80;99.90;;;;;;5105509;28;20474;-93
2022/05/27 02:37:41;;;;;;;5.87;2.70;;;15.80;99.90;;;;;;5106113;28;20510;-94
2022/05/27 02:40:13;;;;;;;5.10;2.67;;;15.80;99.90;;;;;;5106120;28;20441;-92
2022/05/27 02:42:50;;;;;;;6.23;3.20;;;15.80;99.90;;;;;;5106543;28;20438;-93
2022/05/27 02:45:30;;;;;;;5.10;2.83;;;16.00;99.90;;;;;;5103161;28;20477;-93
2022/05/27 02:48:06;;;;;;;3.40;2.40;;;15.80;99.90;;;;;;5100614;28;20430;-92
2022/05/27 02:50:41;;;;;;;3.77;2.93;;;15.80;99.90;;;;;;5105558;28;20473;-93
2022/05/27 02:53:15;;;;;;;4.80;2.70;;;15.70;99.90;;;;;;5099148;28;20457;-93
2022/05/27 02:55:51;;;;;;;4.20;2.87;;;15.80;99.90;;;;;;5103435;28;20487;-92
2022/05/27 02:58:18;;;;;;;7.03;2.70;;;15.70;99.90;;;;;;5098193;28;20438;-92
2022/05/27 03:00:46;;;;;;;4.30;3.30;;;15.70;99.90;;;;;;5105834;28;20451;-92
2022/05/27 03:03:14;;;;;;;3.00;2.30;;;15.70;99.90;;;;;;5099756;28;20462;-94
2022/05/27 03:05:49;;;;;;;7.07;2.60;;;15.70;99.90;;;;;;5106536;28;20466;-92
2022/05/27 03:08:23;;;;;;;4.87;2.40;;;15.70;99.90;;;;;;5098996;28;20420;-94
2022/05/27 03:10:58;;;;;;;8.97;2.70;;;15.70;99.90;;;;;;5105310;28;20827;-93
2022/05/27 03:13:50;;;;;;;10.47;3.00;;;15.70;99.90;;;;;;5105606;28;20451;-93
2022/05/27 03:16:25;;;;;;;4.33;2.90;;;15.70;99.90;;;;;;5103384;28;20485;-93
2022/05/27 03:19:07;;;;;;;4.83;2.67;;;15.70;99.90;;;;;;5125268;28;20432;-93
2022/05/27 03:21:39;;;;;;;5.27;2.57;;;15.70;99.90;;;;;;5126899;28;20435;-93
2022/05/27 03:24:19;;;;;;;8.33;2.60;;;15.70;99.90;;;;;;5122532;28;20446;-93
2022/05/27 03:26:59;;;;;;;8.50;3.30;;;15.70;99.90;;;;;;5124562;28;20420;-93
2022/05/27 03:29:32;;;;;;;4.30;2.93;;;15.70;99.90;;;;;;5122604;28;20441;-93
2022/05/27 03:32:06;;;;;;;5.87;2.90;;;15.70;99.90;;;;;;5124656;28;20430;-94
2022/05/27 03:34:40;;;;;;;6.17;2.87;;;15.70;99.90;;;;;;5120963;28;20851;-93
2022/05/27 03:37:12;;;;;;;6.10;2.67;;;15.70;99.90;;;;;;5116734;28;20463;-93
2022/05/27 03:39:44;;;;;;;3.93;2.90;;;15.70;99.90;;;;;;5117255;28;20404;-93
2022/05/27 03:42:12;;;;;;;5.03;2.87;;;15.70;99.90;;;;;;5117352;28;20429;-93
2022/05/27 03:44:49;;;;;;;2.90;2.67;;;15.70;99.90;;;;;;5116886;28;20469;-93
2022/05/27 03:47:15;;;;;;;6.90;2.83;;;15.70;99.90;;;;;;5116896;28;20430;-92
2022/05/27 03:49:44;;;;;;;4.33;2.70;;;15.70;99.90;;;;;;5115805;28;20899;-93
2022/05/27 03:52:18;;;;;;;4.07;2.60;;;15.70;99.90;;;;;;5116345;28;20458;-93
2022/05/27 03:54:45;;;;;;;4.90;2.83;;;15.70;99.90;;;;;;5115941;28;20447;-92
2022/05/27 03:57:11;;;;;;;10.93;3.10;;;15.70;99.90;;;;;;5115706;28;20456;-93
2022/05/27 03:59:38;;;;;;;6.40;3.27;;;15.80;99.90;;;;;;5115871;28;20489;-93
2022/05/27 04:02:05;;;;;;;6.10;2.60;;;15.80;99.90;;;;;;5116282;28;20454;-94
2022/05/27 04:04:32;;;;;;;7.87;2.63;;;15.80;99.90;;;;;;5115436;28;20485;-92
2022/05/27 04:07:01;;;;;;;7.40;2.90;;;15.80;99.90;;;;;;5117617;28;20454;-92
2022/05/27 04:09:28;;;;;;;2.63;2.40;;;15.80;99.90;;;;;;5115681;28;20949;-92
2022/05/27 04:11:56;;;;;;;6.33;2.87;;;15.80;99.90;;;;;;5115490;28;20779;-93
2022/05/27 04:14:23;;;;;;;9.27;2.63;;;15.80;99.90;;;;;;5115610;28;20478;-93
2022/05/27 04:16:50;;;;;;;6.77;2.27;;;15.80;99.90;;;;;;5115293;28;20485;-92
2022/05/27 04:19:17;;;;;;;5.27;2.63;;;15.80;99.90;;;;;;5115484;28;20966;-93
2022/05/27 04:21:44;;;;;;;4.00;2.70;;;15.80;99.90;;;;;;5115357;28;20876;-92
2022/05/27 04:24:12;;;;;;;3.10;2.53;;;15.80;99.90;;;;;;5114906;28;20469;-94
2022/05/27 04:26:39;;;;;;;4.40;2.50;;;15.80;99.90;;;;;;5115001;28;20462;-92
2022/05/27 04:29:05;;;;;;;4.30;2.47;;;16.00;99.90;;;;;;5105785;28;20465;-93
2022/05/27 04:31:32;;;;;;;4.73;2.60;;;15.90;99.90;;;;;;5094846;28;20420;-93
2022/05/27 04:33:59;;;;;;;4.80;2.57;;;15.80;99.90;;;;;;5094949;28;20931;-93
2022/05/27 04:36:26;;;;;;;6.17;2.27;;;15.80;99.90;;;;;;5095300;28;20456;-93
2022/05/27 04:38:52;;;;;;;3.60;2.50;;;15.90;99.90;;;;;;5105290;28;20428;-95
2022/05/27 04:41:24;;;;;;;3.87;2.53;;;15.80;99.90;;;;;;5100427;28;20438;-93
2022/05/27 04:43:51;;;;;;;4.30;2.70;;;15.80;99.90;;;;;;5094848;28;20824;-93
2022/05/27 04:46:18;;;;;;;2.80;2.47;;;15.80;99.90;;;;;;5094863;28;20807;-93
2022/05/27 04:48:45;;;;;;;8.20;2.30;;;15.90;99.90;;;;;;5095090;28;20438;-93
2022/05/27 04:51:11;;;;;;;5.60;2.47;;;16.00;99.90;;;;;;5093926;28;20462;-93
2022/05/27 04:53:38;;;;;;;3.13;2.73;;;15.90;99.90;;;;;;5094718;28;20482;-92
2022/05/27 04:56:06;;;;;;;3.53;2.40;;;15.90;99.90;;;;;;5094420;28;20479;-93
2022/05/27 04:58:35;;;;;;;7.30;2.70;;;16.00;99.90;;;;;;5094518;28;20433;-92
2022/05/27 05:01:02;;;;;;;5.10;2.23;;;16.00;99.90;;;;;;5094445;28;20462;-92
2022/05/27 05:03:29;;;;;;;4.57;2.60;;;16.10;99.90;;;;;;5094184;28;20514;-92
2022/05/27 05:05:56;;;;;;;2.53;2.13;;;16.10;99.90;;;;;;5093969;28;20406;-93
2022/05/27 05:08:29;;;;;;;3.07;2.67;;;16.10;99.90;;;;;;5094445;28;20769;-92
2022/05/27 05:10:56;;;;;;;3.83;2.37;;;16.20;99.90;;;;;;5094469;28;20451;-93
2022/05/27 05:13:22;;;;;;;4.17;2.50;;;16.10;99.90;;;;;;5093958;28;20432;-92
2022/05/27 05:15:50;;;;;;;4.40;2.70;;;16.20;99.90;;;;;;5093695;28;20785;-93
2022/05/27 05:18:17;;;;;;;3.17;2.37;;;16.10;99.90;;;;;;5111162;28;20463;-92
2022/05/27 05:20:44;;;;;;;6.50;2.57;;;16.00;99.90;;;;;;5114549;28;20454;-92
2022/05/27 05:23:11;;;;;;;4.43;2.53;;;16.00;99.90;;;;;;5114267;28;20461;-92
2022/05/27 05:25:38;;;;;;;2.80;2.50;;;16.00;99.90;;;;;;5114265;28;20458;-93
2022/05/27 05:28:05;;;;;;;2.80;2.60;;;16.00;99.90;;;;;;5113978;28;20943;-92
2022/05/27 05:30:31;;;;;;;3.20;2.40;;;16.00;99.90;;;;;;5114481;28;20861;-93
2022/05/27 05:33:00;;;;;;;3.63;2.20;;;16.00;99.90;;;;;;5114021;28;20461;-92
2022/05/27 05:35:26;;;;;;;4.83;2.50;;;16.00;99.90;;;;;;5113905;28;20453;-93
2022/05/27 05:37:53;;;;;;;2.80;2.30;;;16.00;99.90;;;;;;5113971;28;21030;-92
2022/05/27 05:40:20;;;;;;;8.80;2.70;;;16.00;99.90;;;;;;5114040;28;20454;-93
2022/05/27 05:42:47;;;;;;;4.63;2.17;;;16.00;99.90;;;;;;5113381;28;21024;-92
2022/05/27 05:45:17;;;;;;;7.83;2.50;;;16.00;99.90;;;;;;5113532;28;20974;-93
2022/05/27 05:47:44;;;;;;;6.47;2.20;;;16.00;99.90;;;;;;5114197;28;20435;-93
2022/05/27 05:50:13;;;;;;;3.33;2.30;;;15.90;99.90;;;;;;5113270;28;20450;-93
2022/05/27 05:52:41;;;;;;;4.93;2.23;;;15.90;99.90;;;;;;5113873;28;20469;-92
2022/05/27 05:55:08;;;;;;;4.73;2.77;;;15.90;99.90;;;;;;5113738;28;20450;-93
2022/05/27 05:57:39;;;;;;;2.37;2.17;;;15.80;99.90;;;;;;5113929;28;20452;-92
2022/05/27 06:00:07;;;;;;;4.30;2.10;;;15.80;99.90;;;;;;5114002;28;20527;-93
2022/05/27 06:02:34;;;;;;;4.30;2.10;;;15.80;99.90;;;;;;5113502;28;20438;-92
2022/05/27 06:05:03;;;;;;;2.73;2.20;;;15.80;99.90;;;;;;5113522;28;20517;-92
2022/05/27 06:07:31;;;;;;;2.23;2.00;;;15.90;99.90;;;;;;5114408;28;20446;-94
2022/05/27 06:09:58;;;;;;;4.13;2.00;;;16.00;99.90;;;;;;5113617;28;20461;-92
2022/05/27 06:12:26;;;;;;;3.73;2.30;;;16.00;99.90;;;;;;5113981;28;20458;-92
2022/05/27 06:14:53;;;;;;;3.80;2.00;;;16.10;99.90;;;;;;5113531;28;20989;-93
2022/05/27 06:17:20;;;;;;;2.17;1.97;;;16.10;99.90;;;;;;5114828;28;20564;-92
2022/05/27 06:19:48;;;;;;;1.97;1.87;;;;;;;;;;5116259;28;20434;-92
2022/05/27 06:22:15;;;;;;;5.53;2.20;;;16.20;99.90;;;;;;5114930;28;20457;-91
2022/05/27 06:24:43;;;;;;;2.80;2.03;;;16.20;99.90;;;;;;5115342;28;20448;-92
2022/05/27 06:27:10;;;;;;;5.37;2.07;;;16.10;99.90;;;;;;5115081;28;20415;-92
2022/05/27 06:35:07;;;;;;;3.47;2.00;;;16.00;99.90;;;;;;5115667;28;20453;-92
2022/05/27 06:37:35;;;;;;;3.03;2.00;;;15.90;99.90;;;;;;5115723;28;20481;-92
2022/05/27 06:40:04;;;;;;;2.57;1.57;;;15.70;99.90;;;;;;5115764;28;20436;-91
2022/05/27 06:42:31;;;;;;;1.63;1.53;;;15.50;99.90;;;;;;5115129;28;20457;-91
2022/05/27 06:44:58;;;;;;;2.17;1.50;;;15.50;99.90;;;;;;5114342;28;20433;-90
2022/05/27 06:47:25;;;;;;;1.67;1.57;;;15.60;99.90;;;;;;5116067;28;20450;-91
2022/05/27 06:49:52;;;;;;;5.97;1.83;;;15.60;99.90;;;;;;5114758;28;20948;-91
2022/05/27 06:52:18;;;;;;;2.17;1.80;;;15.60;99.90;;;;;;5115315;28;20454;-93
2022/05/27 06:54:45;;;;;;;4.67;1.87;;;15.60;99.90;;;;;;5115139;28;20476;-91
2022/05/27 06:57:14;;;;;;;3.40;2.10;;;15.70;99.90;;;;;;5114856;28;20480;-91
2022/05/27 06:59:41;;;;;;;2.10;1.90;;;15.90;99.90;;;;;;5115098;28;20438;-92
2022/05/27 07:02:08;;;;;;;2.10;1.90;;;15.70;99.90;;;;;;5117551;28;20432;-91
2022/05/27 07:04:35;;;;;;;3.17;1.90;;;15.60;99.90;;;;;;5117462;28;20488;-90
2022/05/27 07:07:04;;;;;;;2.27;2.00;;;15.60;99.90;;;;;;5118488;28;20936;-91
2022/05/27 07:09:35;;;;;;;2.20;2.00;;;15.60;99.90;;;;;;5118754;28;20454;-91
2022/05/27 07:12:04;;;;;;;3.33;2.17;;;15.70;99.90;;;;;;5118436;28;20531;-91
2022/05/27 07:14:32;;;;;;;2.50;1.93;;;15.60;99.90;;;;;;5118110;28;20476;-91
2022/05/27 07:16:59;;;;;;;5.60;2.13;;;15.60;99.90;;;;;;5121171;28;20478;-92
2022/05/27 07:19:25;;;;;;;3.10;2.00;;;15.60;99.90;;;;;;5118895;28;20966;-90
2022/05/27 07:21:55;;;;;;;5.13;1.83;;;15.50;99.90;;;;;;5118069;28;20461;-91
2022/05/27 07:24:23;;;;;;;3.53;1.80;;;15.70;99.90;;;;;;5118107;28;20535;-91
2022/05/27 07:26:50;;;;;;;2.50;2.30;;;15.80;99.90;;;;;;5117822;28;20450;-91
2022/05/27 07:29:17;;;;;;;7.07;2.33;;;15.90;99.90;;;;;;5118438;28;20966;-92
2022/05/27 07:31:45;;;;;;;7.43;2.00;;;15.80;99.90;;;;;;5117963;28;20466;-92
2022/05/27 07:34:13;;;;;;;3.30;2.10;;;15.80;99.90;;;;;;5117924;28;20469;-91
2022/05/27 07:36:40;;;;;;;2.90;1.83;;;15.80;99.90;;;;;;5118033;28;20454;-91
2022/05/27 07:39:08;;;;;;;1.70;1.60;;;15.70;99.90;;;;;;5119749;28;20464;-91
2022/05/27 07:44:16;;;;;;;1.80;1.70;;;15.50;99.90;;;;;;5134926;27;21042;-91
2022/05/27 07:46:43;;;;;;;2.80;1.80;;;15.50;99.90;;;;;;5091067;28;20458;-90
2022/05/27 07:49:10;;;;;;;2.47;2.27;;;;;;;;;;5090939;28;20462;-92
2022/05/27 07:51:37;;;;;;;3.53;2.00;;;15.80;99.90;;;;;;5090769;28;20447;-90
2022/05/27 07:54:04;;;;;;;2.40;2.20;;;16.00;99.90;;;;;;5091554;28;20497;-90
2022/05/27 07:56:31;;;;;;;2.57;1.70;;;16.10;99.90;;;;;;5092041;28;20427;-91
2022/05/27 07:58:58;;;;;;;6.20;1.60;;;16.10;99.90;;;;;;5091109;28;20451;-90
2022/05/27 08:01:26;;;;;;;2.07;1.87;;;16.00;99.90;;;;;;5090845;28;20433;-91
2022/05/27 08:03:53;;;;;;;1.80;1.70;;;16.30;99.90;;;;;;5089979;28;20976;-90
2022/05/27 08:06:19;;;;;;;2.03;1.83;;;16.20;99.90;;;;;;5090149;28;20818;-91
2022/05/27 08:08:47;;;;;;;3.83;1.70;;;16.20;99.90;;;;;;5090207;28;20426;-90
2022/05/27 08:11:14;;;;;;;2.50;2.30;;;16.20;99.90;;;;;;5090547;28;20486;-92
2022/05/27 08:13:42;;;;;;;1.60;1.50;;;16.20;99.90;;;;;;5090749;28;20447;-90
2022/05/27 08:16:09;;;;;;;4.53;2.40;;;16.30;99.90;;;;;;5090692;28;20463;-90
2022/05/27 08:18:38;;;;;;;7.20;1.97;;;16.50;99.90;;;;;;5090466;28;20455;-89
2022/05/27 08:21:05;;;;;;;2.50;1.30;;;16.70;99.90;;;;;;5090552;28;20959;-91
2022/05/27 08:23:32;;;;;;;2.13;1.80;;;16.60;99.90;;;;;;5089847;28;20457;-91
2022/05/27 08:26:01;;;;;;;2.40;1.40;;;16.50;99.90;;;;;;5090228;28;20517;-91
2022/05/27 08:28:27;;;;;;;1.50;1.40;;;16.30;99.90;;;;;;5089682;28;20478;-92
2022/05/27 08:30:58;;;;;;;1.70;1.60;;;16.50;99.90;;;;;;5090152;28;20459;-90
2022/05/27 08:38:00;;;;;;;1.40;1.30;;;16.40;99.90;;;;;;5089876;28;20426;-90
2022/05/27 08:38:59;;;;;;;1.60;1.50;;;16.30;99.90;;;;;;5089823;28;20484;-92
2022/05/27 08:41:42;;;;;;;1.30;1.20;;;16.60;99.90;;;;;;5089785;28;20416;-91
2022/05/27 08:44:24;;;;;;;1.30;1.10;;;16.50;99.90;;;;;;5089729;28;20490;-90
2022/05/27 08:46:59;;;;;;;1.30;1.20;;;16.50;99.90;;;;;;5090871;28;20807;-90
2022/05/27 08:49:31;;;;;;;1.50;1.40;;;16.50;99.90;;;;;;5089946;28;20458;-91
2022/05/27 08:52:04;;;;;;;2.70;1.30;;;16.40;99.90;;;;;;5089616;28;20461;-90
2022/05/27 08:54:36;;;;;;;1.50;1.40;;;16.50;99.90;;;;;;5083891;28;20450;-92
2022/05/27 08:59:55;;;;;;;1.50;1.37;;;16.50;99.90;;;;;;5075696;28;20818;-91
2022/05/27 09:02:29;;;;;;;1.43;1.33;;;16.90;99.90;;;;;;5076094;28;20429;-90
2022/05/27 09:05:02;;;;;;;1.67;1.57;;;16.80;99.90;;;;;;5075921;28;20995;-90
2022/05/27 09:07:38;;;;;;;2.67;1.67;;;17.00;99.90;;;;;;5075638;28;20787;-91
2022/05/27 09:10:08;;;;;;;1.63;1.53;;;17.10;99.90;;;;;;5075883;28;20440;-91
2022/05/27 09:13:01;;;;;;;1.60;1.50;;;17.30;99.90;;;;;;5075571;28;20443;-91
2022/05/27 09:15:36;;;;;;;2.90;1.33;;;17.30;99.90;;;;;;5075944;28;20446;-90
2022/05/27 09:18:12;;;;;;;1.50;1.40;;;17.80;99.90;;;;;;5077243;28;20453;-91
2022/05/27 09:20:54;;;;;;;1.97;1.30;;;18.00;99.90;;;;;;5075864;28;20936;-91
2022/05/27 09:23:41;;;;;;;1.40;1.30;;;18.10;99.90;;;;;;5075151;28;20438;-91
2022/05/27 09:26:15;;;;;;;1.10;1.00;;;18.20;99.90;;;;;;5075750;28;20410;-92
2022/05/27 09:28:49;;;;;;;1.47;1.37;;;17.90;99.90;;;;;;5075503;28;20456;-91
2022/05/27 09:31:31;;;;;;;2.43;1.20;;;17.70;99.90;;;;;;5075138;28;20460;-90
2022/05/27 09:33:58;;;;;;;1.87;1.30;;;17.90;99.90;;;;;;5075227;28;20496;-90
2022/05/27 09:36:34;;;;;;;1.50;1.40;;;18.10;99.90;;;;;;5075927;28;20463;-91
2022/05/27 09:39:07;;;;;;;1.40;1.30;;;18.20;99.90;;;;;;5075412;28;20532;-90
2022/05/27 09:41:41;;;;;;;1.20;1.10;;;18.30;99.90;;;;;;5076032;28;20859;-91
2022/05/27 09:44:17;;;;;;;2.13;1.40;;;18.30;99.90;;;;;;5075181;28;20460;-90
2022/05/27 09:46:44;;;;;;;1.40;1.30;;;18.20;99.90;;;;;;5076262;28;20426;-91
2022/05/27 09:49:11;;;;;;;1.83;1.20;;;18.00;99.90;;;;;;5074522;28;20431;-91
2022/05/27 09:51:38;;;;;;;1.30;1.20;;;17.80;99.90;;;;;;5075586;28;20438;-90
2022/05/27 09:54:19;;;;;;;1.73;1.30;;;18.00;99.90;;;;;;5074821;28;20446;-90
2022/05/27 09:56:57;;;;;;;1.63;1.30;;;18.00;99.90;;;;;;5075211;28;20447;-91
2022/05/27 09:59:27;;;;;;;1.40;1.30;;;18.10;99.90;;;;;;5075333;28;20445;-90
2022/05/27 10:02:14;;;;;;;1.60;1.50;;;18.10;99.90;;;;;;5075219;28;20460;-90
2022/05/27 10:04:50;;;;;;;1.50;1.40;;;18.20;99.90;;;;;;5074211;28;20487;-90
2022/05/27 10:07:25;;;;;;;1.50;1.40;;;18.10;99.90;;;;;;5074356;28;20422;-91
2022/05/27 10:09:53;;;;;;;1.80;1.10;;;18.00;99.90;;;;;;5096297;28;20409;-96
2022/05/27 10:12:29;;;;;;;4.33;1.80;;;18.00;99.90;;;;;;5099332;28;20458;-96
2022/05/27 10:14:56;;;;;;;6.90;2.00;;;17.70;99.90;;;;;;5099420;28;20436;-95
2022/05/27 10:17:31;;;;;;;6.70;3.00;;;17.10;99.90;;;;;;5097063;28;20428;-92
2022/05/27 10:20:18;;;;;;;2.90;2.00;;;16.80;99.90;;;;;;5094490;28;20534;-92
2022/05/27 10:22:59;;;;;;;5.20;1.90;;;16.50;99.90;;;;;;5093643;28;20411;-93
2022/05/27 10:25:34;;;;;;;3.27;1.73;;;16.30;99.90;;;;;;5086624;28;20823;-91
2022/05/27 10:28:01;;;;;;;4.90;1.97;;;16.20;99.90;;;;;;5074053;28;20465;-91
2022/05/27 10:30:30;;;;;;;2.07;1.67;;;16.20;99.90;;;;;;5093877;28;20455;-92
2022/05/27 10:33:14;;;;;;;1.63;1.40;;;16.40;99.90;;;;;;5094860;28;20820;-91
2022/05/27 10:35:40;;;;;;;1.73;1.63;;;16.60;99.90;;;;;;5094699;28;20447;-93
2022/05/27 10:38:33;;;;;;;2.87;1.50;;;16.70;99.90;;;;;;5095056;28;20426;-91
2022/05/27 10:41:07;;;;;;;1.40;1.30;;;17.10;99.90;;;;;;5094019;28;20425;-90
2022/05/27 10:43:47;;;;;;;1.60;1.30;;;17.30;99.90;;;;;;5094094;28;20457;-91
2022/05/27 10:46:18;;;;;;;1.37;1.27;;;17.50;99.90;;;;;;5094259;28;20913;-91
2022/05/27 10:49:09;;;;;;;3.00;1.50;;;17.80;99.90;;;;;;5095536;28;20744;-91
2022/05/27 10:51:48;;;;;;;1.60;1.50;;;18.00;99.90;;;;;;5098507;28;20450;-91
2022/05/27 10:54:39;;;;;;;1.40;1.30;;;18.30;99.90;;;;;;5105459;28;20983;-91
2022/05/27 11:03:18;;;;;;;1.60;1.40;;;19.30;99.90;;;;;;5093586;28;20386;-92
2022/05/27 11:06:01;;;;;;;2.07;1.60;;;19.80;99.90;;;;;;5093870;28;20455;-91
2022/05/27 11:08:30;;;;;;;1.73;1.60;;;20.00;99.90;;;;;;5094030;28;20459;-91
2022/05/27 11:11:17;;;;;;;2.40;1.97;;;20.20;99.90;;;;;;5093920;28;20964;-90
2022/05/27 11:17:11;;;;;;;1.87;1.57;;;19.40;99.90;;;;;;5089705;28;20405;-91
2022/05/27 11:20:00;;;;;;;1.70;1.57;;;19.20;99.90;;;;;;5073708;28;20444;-91
2022/05/27 11:22:35;;;;;;;2.70;1.90;;;19.00;99.90;;;;;;5073372;28;20463;-91
2022/05/27 11:25:21;;;;;;;1.93;1.83;;;18.90;99.90;;;;;;5073280;28;20983;-90
2022/05/27 11:28:15;;;;;;;2.90;2.23;;;18.60;99.90;;;;;;5074464;28;20483;-91
2022/05/27 11:30:51;;;;;;;4.23;2.50;;;18.30;99.90;;;;;;5054478;28;20448;-90
2022/05/27 11:33:39;;;;;;;3.07;2.33;;;18.20;99.90;;;;;;5054135;28;20516;-91
2022/05/27 11:36:19;;;;;;;2.90;2.60;;;18.10;99.90;;;;;;5054269;28;20919;-91
2022/05/27 11:39:02;;;;;;;4.33;2.73;;;18.10;99.90;;;;;;5054195;28;20433;-91
2022/05/27 11:41:31;;;;;;;3.60;3.00;;;18.00;99.90;;;;;;5054316;28;20468;-90
2022/05/27 11:44:11;;;;;;;3.60;2.67;;;17.90;99.90;;;;;;5053593;28;20503;-91
2022/05/27 11:47:06;;;;;;;3.77;3.10;;;17.90;99.90;;;;;;5053713;28;20455;-91
2022/05/27 11:49:42;;;;;;;5.30;3.20;;;18.00;99.90;;;;;;5050596;28;20456;-90
2022/05/27 11:52:40;;;;;;;4.23;3.30;;;18.80;99.90;;;;;;5054361;28;20423;-91
2022/05/27 11:55:23;;;;;;;3.37;2.80;;;19.40;99.90;;;;;;5048279;28;20468;-91
2022/05/27 11:58:07;;;;;;;4.13;2.93;;;19.60;99.90;;;;;;5053941;28;20451;-91
2022/05/27 12:00:39;;;;;;;3.53;2.83;;;19.70;99.90;;;;;;5057777;28;20459;-90
2022/05/27 12:03:12;;;;;;;11.97;3.47;;;19.80;99.90;;;;;;5054099;28;20457;-90
2022/05/27 12:05:42;;;;;;;4.03;3.10;;;20.30;99.90;;;;;;5054550;28;20435;-91
2022/05/27 12:08:23;;;;;;;8.37;3.33;;;20.70;99.90;;;;;;5055043;28;20448;-90
2022/05/27 12:10:54;;;;;;;6.13;3.40;;;20.90;99.90;;;;;;5056308;28;20448;-91
2022/05/27 12:13:26;;;;;;;4.57;2.93;;;20.90;99.90;;;;;;5054999;28;20482;-91
2022/05/27 12:15:56;;;;;;;4.30;2.93;;;21.10;99.90;;;;;;5054271;28;20456;-90
2022/05/27 12:18:29;;;;;;;3.20;2.87;;;21.60;99.90;;;;;;5054660;28;20467;-93
2022/05/27 12:20:57;;;;;;;4.83;2.80;;;21.60;99.90;;;;;;5053912;28;20452;-91
2022/05/27 12:23:28;;;;;;;6.03;2.90;;;21.90;99.90;;;;;;5053496;28;20437;-91
2022/05/27 12:25:59;;;;;;;3.47;2.70;;;21.80;99.90;;;;;;5053767;28;20918;-90
2022/05/27 12:28:30;;;;;;;5.23;3.20;;;22.10;99.90;;;;;;5053335;28;20455;-93
2022/05/27 12:30:59;;;;;;;3.07;2.77;;;22.20;99.90;;;;;;5056419;28;20464;-90
2022/05/27 12:33:29;;;;;;;7.13;2.47;;;22.30;99.90;;;;;;5056972;28;20460;-90
2022/05/27 12:36:01;;;;;;;3.93;3.07;;;22.50;99.90;;;;;;5057147;28;20575;-91
2022/05/27 12:38:30;;;;;;;3.67;2.67;;;22.30;99.90;;;;;;5057132;28;20456;-90
2022/05/27 12:41:01;;;;;;;6.87;3.50;;;22.40;99.90;;;;;;5056622;28;20462;-91
2022/05/27 12:43:31;;;;;;;5.20;3.40;;;22.80;99.90;;;;;;5056630;28;20468;-91
2022/05/27 12:46:22;;;;;;;5.63;3.90;;;22.00;99.90;;;;;;5056323;28;20469;-91
2022/05/27 12:48:50;;;;;;;5.93;3.57;;;21.70;99.90;;;;;;5057261;28;20455;-92
2022/05/27 12:51:39;;;;;;;7.47;3.83;;;22.10;99.90;;;;;;5056471;28;20453;-91
2022/05/27 12:54:06;;;;;;;5.10;3.40;;;22.60;99.90;;;;;;5056151;28;20490;-91
2022/05/27 13:02:52;;;;;;;6.60;3.07;;;22.80;99.90;;;;;;5056490;28;20411;-90
2022/05/27 13:05:22;;;;;;;8.40;4.07;;;22.90;99.90;;;;;;5056131;28;20576;-91
2022/05/27 13:08:09;;;;;;;7.03;3.67;;;23.00;99.90;;;;;;5056776;28;20456;-91
2022/05/27 13:10:47;;;;;;;4.10;3.07;;;23.20;99.90;;;;;;5056993;28;20844;-90
2022/05/27 13:13:16;;;;;;;6.63;3.90;;;23.50;99.90;;;;;;5057255;28;20940;-92
2022/05/27 13:15:53;;;;;;;8.10;2.97;;;23.80;99.90;;;;;;5057269;28;20463;-90
2022/05/27 13:18:36;;;;;;;6.87;3.50;;;24.10;99.90;;;;;;5056759;28;20460;-91
2022/05/27 13:21:11;;;;;;;9.47;4.67;;;24.20;99.90;;;;;;5055554;28;20487;-90
2022/05/27 13:23:52;;;;;;;5.00;2.90;;;24.20;99.90;;;;;;5055889;28;21003;-90
2022/05/27 13:26:32;;;;;;;9.70;3.60;;;23.50;99.90;;;;;;5056831;28;20923;-90
2022/05/27 13:28:59;;;;;;;7.40;3.53;;;22.90;99.90;;;;;;5056412;28;20436;-90
2022/05/27 13:31:33;;;;;;;3.40;3.03;;;23.20;99.90;;;;;;5056912;28;20461;-91
2022/05/27 13:34:07;;;;;;;5.30;3.57;;;22.60;99.90;;;;;;5057356;28;20460;-91
2022/05/27 13:36:40;;;;;;;4.60;3.13;;;21.90;99.90;;;;;;5056333;28;20483;-90
2022/05/27 13:39:11;;;;;;;4.33;3.60;;;21.30;99.90;;;;;;5056229;28;20465;-91
2022/05/27 13:41:41;;;;;;;3.67;3.37;;;21.00;99.90;;;;;;5056158;28;20468;-90
2022/05/27 13:44:11;;;;;;;4.40;3.10;;;20.80;99.90;;;;;;5055823;28;20530;-90